createdAt,value
2019-01-29T00:00:20.693Z,2.44
2019-01-29T00:01:20.711Z,2.54
2019-01-29T00:02:20.734Z,2.54
2019-01-29T00:03:20.757Z,2.54
2019-01-29T00:04:20.778Z,2.55
2019-01-29T00:05:20.797Z,2.47
2019-01-29T00:06:20.818Z,2.47
2019-01-29T00:07:20.842Z,2.49
2019-01-29T00:08:20.862Z,2.38
2019-01-29T00:09:20.882Z,2.44
2019-01-29T00:10:20.910Z,2.58
2019-01-29T00:11:20.928Z,2.48
2019-01-29T00:12:20.958Z,2.45
2019-01-29T00:13:20.970Z,2.48
2019-01-29T00:14:20.990Z,2.49
2019-01-29T00:15:21.011Z,2.44
2019-01-29T00:16:21.038Z,2.47
2019-01-29T00:17:21.055Z,2.38
2019-01-29T00:18:21.077Z,2.52
2019-01-29T00:19:21.098Z,2.40
2019-01-29T00:20:21.118Z,2.40
2019-01-29T00:21:21.138Z,2.42
2019-01-29T00:22:21.159Z,2.38
2019-01-29T00:23:21.183Z,2.47
2019-01-29T00:24:21.201Z,2.42
2019-01-29T00:25:21.222Z,2.42
2019-01-29T00:26:21.245Z,2.40
2019-01-29T00:27:21.272Z,2.41
2019-01-29T00:28:21.293Z,2.44
2019-01-29T00:29:21.310Z,2.44
2019-01-29T00:30:21.330Z,2.44
2019-01-29T00:31:21.354Z,2.48
2019-01-29T00:32:21.374Z,2.48
2019-01-29T00:33:21.394Z,2.47
2019-01-29T00:34:21.415Z,2.38
2019-01-29T00:35:21.438Z,2.40
2019-01-29T00:36:21.457Z,2.49
2019-01-29T00:37:21.478Z,2.38
2019-01-29T00:38:21.499Z,2.36
2019-01-29T00:39:21.521Z,2.36
2019-01-29T00:40:21.546Z,2.44
2019-01-29T00:41:21.565Z,2.44
2019-01-29T00:42:21.586Z,2.49
2019-01-29T00:43:21.608Z,2.40
2019-01-29T00:44:21.630Z,2.38
2019-01-29T00:45:21.647Z,2.34
2019-01-29T00:46:21.669Z,2.45
2019-01-29T00:47:21.693Z,2.33
2019-01-29T00:48:21.713Z,2.41
2019-01-29T00:49:22.778Z,2.34
2019-01-29T00:50:21.754Z,2.31
2019-01-29T00:51:21.778Z,2.36
2019-01-29T00:52:21.800Z,2.31
2019-01-29T00:53:21.824Z,2.40
2019-01-29T00:54:21.838Z,2.40
2019-01-29T00:55:21.863Z,2.40
2019-01-29T00:56:21.881Z,2.33
2019-01-29T00:57:21.906Z,2.47
2019-01-29T00:58:21.927Z,2.34
2019-01-29T00:59:21.948Z,2.36
2019-01-29T01:00:21.975Z,2.36
2019-01-29T01:01:21.999Z,2.36
2019-01-29T01:02:22.009Z,2.44
2019-01-29T01:03:22.032Z,2.33
2019-01-29T01:04:22.054Z,2.42
2019-01-29T01:05:22.075Z,2.40
2019-01-29T01:06:22.096Z,2.38
2019-01-29T01:07:22.116Z,2.45
2019-01-29T01:08:22.136Z,2.42
2019-01-29T01:09:22.158Z,2.44
2019-01-29T01:10:22.180Z,2.44
2019-01-29T01:11:22.203Z,2.58
2019-01-29T01:12:22.222Z,2.55
2019-01-29T01:13:22.242Z,2.55
2019-01-29T01:14:22.266Z,2.65
2019-01-29T01:15:22.287Z,2.55
2019-01-29T01:16:22.316Z,2.58
2019-01-29T01:17:22.331Z,2.60
2019-01-29T01:18:22.352Z,2.59
2019-01-29T01:19:22.373Z,2.52
2019-01-29T01:20:22.394Z,2.58
2019-01-29T01:21:22.416Z,2.55
2019-01-29T01:22:22.434Z,2.60
2019-01-29T01:23:22.458Z,2.58
2019-01-29T01:24:22.479Z,2.60
2019-01-29T01:25:22.501Z,2.63
2019-01-29T01:26:22.522Z,2.60
2019-01-29T01:27:22.542Z,2.59
2019-01-29T01:28:22.562Z,2.58
2019-01-29T01:29:22.587Z,2.54
2019-01-29T01:30:22.606Z,2.58
2019-01-29T01:31:22.628Z,2.54
2019-01-29T01:32:22.650Z,2.41
2019-01-29T01:33:22.681Z,2.47
2019-01-29T01:34:25.733Z,2.47
2019-01-29T01:35:22.712Z,2.42
2019-01-29T01:36:22.735Z,2.34
2019-01-29T01:37:22.757Z,2.38
2019-01-29T01:38:22.778Z,2.38
2019-01-29T01:39:22.798Z,2.34
2019-01-29T01:40:22.820Z,2.30
2019-01-29T01:41:22.844Z,2.40
2019-01-29T01:42:22.873Z,2.34
2019-01-29T01:43:22.888Z,2.34
2019-01-29T01:44:22.903Z,2.30
2019-01-29T01:45:22.928Z,2.30
2019-01-29T01:46:22.946Z,2.34
2019-01-29T01:47:22.975Z,2.27
2019-01-29T01:48:22.988Z,2.30
2019-01-29T01:49:23.023Z,2.22
2019-01-29T01:50:23.033Z,2.27
2019-01-29T01:51:23.056Z,2.22
2019-01-29T01:52:23.079Z,2.27
2019-01-29T01:53:23.096Z,2.24
2019-01-29T01:54:23.118Z,2.24
2019-01-29T01:55:23.138Z,2.24
2019-01-29T01:56:23.157Z,2.27
2019-01-29T01:57:23.178Z,2.24
2019-01-29T01:58:23.201Z,2.23
2019-01-29T01:59:23.222Z,2.30
2019-01-29T02:00:23.244Z,2.24
2019-01-29T02:01:23.264Z,2.26
2019-01-29T02:02:23.287Z,2.20
2019-01-29T02:03:23.309Z,2.15
2019-01-29T02:04:23.331Z,2.12
2019-01-29T02:05:23.351Z,2.11
2019-01-29T02:06:23.370Z,2.13
2019-01-29T02:07:23.394Z,2.09
2019-01-29T02:08:23.411Z,2.02
2019-01-29T02:09:23.436Z,2.01
2019-01-29T02:10:23.454Z,1.92
2019-01-29T02:11:23.476Z,1.89
2019-01-29T02:12:25.508Z,1.93
2019-01-29T02:13:23.530Z,1.92
2019-01-29T02:14:23.541Z,1.87
2019-01-29T02:15:23.565Z,1.86
2019-01-29T02:16:23.583Z,1.92
2019-01-29T02:17:23.601Z,1.89
2019-01-29T02:18:23.623Z,1.78
2019-01-29T02:19:23.646Z,1.79
2019-01-29T02:20:23.665Z,1.76
2019-01-29T02:21:23.686Z,1.83
2019-01-29T02:22:23.707Z,1.86
2019-01-29T02:23:23.728Z,1.79
2019-01-29T02:24:23.751Z,1.83
2019-01-29T02:25:23.773Z,1.78
2019-01-29T02:26:23.793Z,1.83
2019-01-29T02:27:23.815Z,1.82
2019-01-29T02:28:23.844Z,1.76
2019-01-29T02:29:23.862Z,1.83
2019-01-29T02:30:23.877Z,1.82
2019-01-29T02:31:23.899Z,1.74
2019-01-29T02:32:23.925Z,1.74
2019-01-29T02:33:25.183Z,1.76
2019-01-29T02:34:23.962Z,1.76
2019-01-29T02:35:23.981Z,1.72
2019-01-29T02:36:24.001Z,1.68
2019-01-29T02:37:24.019Z,1.69
2019-01-29T02:38:24.041Z,1.65
2019-01-29T02:39:24.063Z,1.60
2019-01-29T02:40:24.085Z,1.68
2019-01-29T02:41:24.104Z,1.68
2019-01-29T02:42:24.132Z,1.65
2019-01-29T02:43:24.147Z,1.66
2019-01-29T02:44:24.167Z,1.64
2019-01-29T02:45:24.188Z,1.64
2019-01-29T02:46:24.220Z,1.79
2019-01-29T02:47:24.228Z,1.69
2019-01-29T02:48:24.248Z,1.71
2019-01-29T02:49:24.286Z,1.71
2019-01-29T02:50:24.291Z,1.74
2019-01-29T02:51:24.315Z,1.76
2019-01-29T02:52:24.335Z,1.72
2019-01-29T02:53:24.355Z,1.74
2019-01-29T02:54:24.373Z,1.74
2019-01-29T02:55:24.398Z,1.83
2019-01-29T02:56:24.418Z,1.79
2019-01-29T02:57:24.437Z,1.83
2019-01-29T02:58:24.457Z,1.86
2019-01-29T02:59:24.480Z,1.79
2019-01-29T03:00:24.502Z,1.84
2019-01-29T03:01:24.521Z,1.87
2019-01-29T03:02:24.543Z,1.86
2019-01-29T03:03:24.563Z,1.84
2019-01-29T03:04:24.584Z,1.79
2019-01-29T03:05:24.606Z,1.78
2019-01-29T03:06:24.627Z,1.83
2019-01-29T03:07:24.646Z,1.82
2019-01-29T03:08:24.669Z,1.82
2019-01-29T03:09:24.687Z,1.82
2019-01-29T03:10:24.712Z,1.83
2019-01-29T03:11:24.731Z,1.83
2019-01-29T03:12:24.753Z,1.82
2019-01-29T03:13:24.770Z,1.84
2019-01-29T03:14:24.793Z,1.87
2019-01-29T03:15:24.818Z,1.87
2019-01-29T03:16:24.838Z,1.79
2019-01-29T03:17:24.859Z,1.87
2019-01-29T03:18:24.883Z,1.75
2019-01-29T03:19:24.896Z,1.84
2019-01-29T03:20:24.928Z,1.84
2019-01-29T03:21:24.939Z,1.86
2019-01-29T03:22:24.960Z,1.78
2019-01-29T03:23:27.734Z,1.83
2019-01-29T03:24:25.012Z,1.83
2019-01-29T03:25:25.021Z,1.74
2019-01-29T03:26:25.046Z,1.74
2019-01-29T03:27:25.064Z,1.75
2019-01-29T03:28:25.084Z,1.71
2019-01-29T03:29:25.106Z,1.72
2019-01-29T03:30:25.222Z,1.79
2019-01-29T03:31:25.146Z,1.72
2019-01-29T03:32:25.172Z,1.79
2019-01-29T03:33:25.190Z,1.76
2019-01-29T03:34:25.208Z,1.79
2019-01-29T03:35:25.229Z,1.74
2019-01-29T03:36:25.250Z,1.82
2019-01-29T03:37:25.269Z,1.76
2019-01-29T03:38:25.293Z,1.66
2019-01-29T03:39:25.311Z,1.66
2019-01-29T03:40:25.332Z,1.64
2019-01-29T03:41:25.351Z,1.61
2019-01-29T03:42:25.372Z,1.76
2019-01-29T03:43:25.397Z,1.66
2019-01-29T03:44:25.414Z,1.69
2019-01-29T03:45:25.443Z,1.75
2019-01-29T03:46:25.457Z,1.66
2019-01-29T03:47:25.479Z,1.61
2019-01-29T03:48:25.500Z,1.72
2019-01-29T03:49:25.520Z,1.65
2019-01-29T03:50:25.538Z,1.68
2019-01-29T03:51:25.570Z,1.61
2019-01-29T03:52:25.581Z,1.75
2019-01-29T03:53:25.604Z,1.57
2019-01-29T03:54:25.623Z,1.66
2019-01-29T03:55:25.645Z,1.61
2019-01-29T03:56:25.666Z,1.68
2019-01-29T03:57:25.689Z,1.71
2019-01-29T03:58:25.708Z,1.57
2019-01-29T03:59:25.731Z,1.58
2019-01-29T04:00:25.748Z,1.60
2019-01-29T04:01:25.767Z,1.60
2019-01-29T04:02:25.791Z,1.58
2019-01-29T04:03:25.813Z,1.60
2019-01-29T04:04:25.832Z,1.69
2019-01-29T04:05:25.854Z,1.61
2019-01-29T04:06:25.872Z,1.64
2019-01-29T04:07:25.900Z,1.65
2019-01-29T04:08:25.917Z,1.66
2019-01-29T04:09:25.938Z,1.69
2019-01-29T04:10:25.958Z,1.61
2019-01-29T04:11:25.976Z,1.60
2019-01-29T04:12:25.997Z,1.71
2019-01-29T04:13:26.017Z,1.72
2019-01-29T04:14:26.043Z,1.69
2019-01-29T04:15:26.063Z,1.74
2019-01-29T04:16:26.082Z,1.74
2019-01-29T04:17:26.103Z,1.76
2019-01-29T04:18:26.124Z,1.76
2019-01-29T04:19:26.143Z,1.79
2019-01-29T04:20:26.192Z,1.71
2019-01-29T04:21:26.187Z,1.75
2019-01-29T04:22:26.205Z,1.78
2019-01-29T04:23:26.227Z,1.75
2019-01-29T04:24:26.250Z,1.78
2019-01-29T04:25:26.273Z,1.76
2019-01-29T04:26:26.290Z,1.86
2019-01-29T04:27:26.309Z,1.78
2019-01-29T04:28:26.331Z,1.86
2019-01-29T04:29:26.352Z,1.78
2019-01-29T04:30:26.389Z,1.79
2019-01-29T04:31:26.394Z,1.83
2019-01-29T04:32:26.412Z,1.83
2019-01-29T04:33:26.438Z,1.78
2019-01-29T04:34:26.456Z,1.87
2019-01-29T04:35:26.479Z,1.84
2019-01-29T04:36:26.540Z,1.79
2019-01-29T04:37:26.518Z,1.87
2019-01-29T04:38:26.539Z,1.86
2019-01-29T04:39:26.560Z,1.90
2019-01-29T04:40:26.581Z,1.84
2019-01-29T04:41:26.608Z,1.90
2019-01-29T04:42:26.622Z,1.82
2019-01-29T04:43:26.644Z,1.82
2019-01-29T04:44:26.662Z,1.79
2019-01-29T04:45:26.688Z,1.83
2019-01-29T04:46:26.713Z,1.87
2019-01-29T04:47:26.728Z,1.87
2019-01-29T04:48:26.752Z,1.86
2019-01-29T04:49:26.769Z,1.79
2019-01-29T04:50:26.799Z,1.86
2019-01-29T04:51:26.811Z,1.83
2019-01-29T04:52:26.834Z,1.87
2019-01-29T04:53:26.853Z,1.79
2019-01-29T04:54:26.874Z,1.83
2019-01-29T04:55:26.892Z,1.78
2019-01-29T04:56:26.916Z,1.83
2019-01-29T04:57:26.932Z,1.78
2019-01-29T04:58:26.956Z,1.79
2019-01-29T04:59:26.977Z,1.74
2019-01-29T05:00:27.008Z,1.74
2019-01-29T05:01:27.019Z,1.69
2019-01-29T05:02:27.052Z,1.74
2019-01-29T05:03:27.060Z,1.65
2019-01-29T05:04:27.081Z,1.66
2019-01-29T05:05:27.107Z,1.64
2019-01-29T05:06:27.123Z,1.65
2019-01-29T05:07:27.141Z,1.68
2019-01-29T05:08:27.161Z,1.66
2019-01-29T05:09:27.186Z,1.71
2019-01-29T05:10:27.202Z,1.72
2019-01-29T05:11:27.228Z,1.61
2019-01-29T05:12:27.246Z,1.60
2019-01-29T05:13:27.267Z,1.60
2019-01-29T05:14:27.291Z,1.56
2019-01-29T05:15:27.307Z,1.58
2019-01-29T05:16:27.330Z,1.57
2019-01-29T05:17:27.348Z,1.60
2019-01-29T05:18:27.370Z,1.57
2019-01-29T05:19:27.392Z,1.54
2019-01-29T05:20:27.410Z,1.60
2019-01-29T05:21:27.432Z,1.53
2019-01-29T05:22:27.454Z,1.51
2019-01-29T05:23:27.475Z,1.51
2019-01-29T05:24:27.499Z,1.57
2019-01-29T05:25:27.518Z,1.51
2019-01-29T05:26:27.537Z,1.51
2019-01-29T05:27:27.558Z,1.51
2019-01-29T05:28:27.575Z,1.50
2019-01-29T05:29:27.601Z,1.46
2019-01-29T05:30:27.633Z,1.47
2019-01-29T05:31:27.639Z,1.47
2019-01-29T05:32:27.660Z,1.36
2019-01-29T05:33:27.685Z,1.50
2019-01-29T05:34:27.705Z,1.38
2019-01-29T05:35:27.724Z,1.36
2019-01-29T05:36:27.741Z,1.48
2019-01-29T05:37:27.767Z,1.36
2019-01-29T05:38:27.785Z,1.36
2019-01-29T05:39:27.804Z,1.46
2019-01-29T05:40:27.828Z,1.47
2019-01-29T05:41:27.849Z,1.39
2019-01-29T05:42:27.866Z,1.40
2019-01-29T05:43:27.888Z,1.44
2019-01-29T05:44:27.906Z,1.53
2019-01-29T05:45:27.929Z,1.44
2019-01-29T05:46:27.953Z,1.46
2019-01-29T05:47:27.972Z,1.53
2019-01-29T05:48:27.989Z,1.44
2019-01-29T05:49:28.012Z,1.35
2019-01-29T05:50:28.031Z,1.44
2019-01-29T05:51:28.055Z,1.40
2019-01-29T05:52:28.073Z,1.48
2019-01-29T05:53:28.103Z,1.48
2019-01-29T05:54:28.115Z,1.46
2019-01-29T05:55:28.145Z,1.47
2019-01-29T05:56:28.157Z,1.46
2019-01-29T05:57:28.192Z,1.42
2019-01-29T05:58:28.211Z,1.40
2019-01-29T05:59:28.217Z,1.40
2019-01-29T06:00:28.238Z,1.40
2019-01-29T06:01:28.258Z,1.33
2019-01-29T06:02:28.280Z,1.36
2019-01-29T06:03:28.302Z,1.35
2019-01-29T06:04:28.321Z,1.35
2019-01-29T06:05:28.345Z,1.30
2019-01-29T06:06:28.363Z,1.36
2019-01-29T06:07:28.382Z,1.33
2019-01-29T06:08:28.404Z,1.38
2019-01-29T06:09:28.421Z,1.36
2019-01-29T06:10:28.448Z,1.36
2019-01-29T06:11:28.468Z,1.38
2019-01-29T06:12:28.486Z,1.35
2019-01-29T06:13:28.507Z,1.38
2019-01-29T06:14:28.530Z,1.36
2019-01-29T06:15:28.546Z,1.39
2019-01-29T06:16:28.568Z,1.40
2019-01-29T06:17:28.592Z,1.42
2019-01-29T06:18:28.610Z,1.47
2019-01-29T06:19:28.632Z,1.38
2019-01-29T06:20:28.654Z,1.40
2019-01-29T06:21:28.673Z,1.40
2019-01-29T06:22:28.692Z,1.40
2019-01-29T06:23:28.715Z,1.36
2019-01-29T06:24:28.733Z,1.38
2019-01-29T06:25:28.766Z,1.33
2019-01-29T06:26:28.779Z,1.33
2019-01-29T06:27:28.796Z,1.33
2019-01-29T06:28:28.816Z,1.36
2019-01-29T06:29:28.837Z,1.33
2019-01-29T06:30:28.858Z,1.40
2019-01-29T06:31:28.879Z,1.38
2019-01-29T06:32:28.898Z,1.42
2019-01-29T06:33:28.918Z,1.40
2019-01-29T06:34:28.941Z,1.46
2019-01-29T06:35:28.959Z,1.44
2019-01-29T06:36:28.979Z,1.54
2019-01-29T06:37:29.019Z,1.39
2019-01-29T06:38:29.020Z,1.50
2019-01-29T06:39:29.044Z,1.44
2019-01-29T06:40:29.063Z,1.53
2019-01-29T06:41:29.083Z,1.46
2019-01-29T06:42:29.107Z,1.48
2019-01-29T06:43:29.126Z,1.58
2019-01-29T06:44:29.144Z,1.50
2019-01-29T06:45:29.166Z,1.54
2019-01-29T06:46:29.186Z,1.48
2019-01-29T06:47:29.210Z,1.50
2019-01-29T06:48:29.226Z,1.51
2019-01-29T06:49:29.247Z,1.47
2019-01-29T06:50:29.273Z,1.53
2019-01-29T06:51:29.293Z,1.58
2019-01-29T06:52:29.311Z,1.56
2019-01-29T06:53:29.330Z,1.53
2019-01-29T06:54:34.136Z,1.57
2019-01-29T06:55:29.372Z,1.65
2019-01-29T06:56:29.466Z,1.68
2019-01-29T06:57:29.418Z,1.64
2019-01-29T06:58:29.436Z,1.68
2019-01-29T06:59:29.457Z,1.65
2019-01-29T07:00:29.475Z,1.68
2019-01-29T07:01:29.496Z,1.65
2019-01-29T07:02:29.519Z,1.69
2019-01-29T07:03:29.538Z,1.65
2019-01-29T07:04:29.561Z,1.76
2019-01-29T07:05:29.580Z,1.76
2019-01-29T07:06:29.605Z,1.76
2019-01-29T07:07:29.621Z,1.76
2019-01-29T07:08:29.644Z,1.66
2019-01-29T07:09:29.662Z,1.68
2019-01-29T07:10:29.687Z,1.58
2019-01-29T07:11:29.707Z,1.64
2019-01-29T07:12:29.727Z,1.65
2019-01-29T07:13:29.751Z,1.72
2019-01-29T07:14:29.766Z,1.82
2019-01-29T07:15:29.788Z,1.74
2019-01-29T07:16:29.810Z,1.68
2019-01-29T07:17:29.832Z,1.74
2019-01-29T07:18:29.852Z,1.76
2019-01-29T07:19:29.871Z,1.79
2019-01-29T07:20:29.894Z,1.75
2019-01-29T07:21:29.913Z,1.74
2019-01-29T07:22:29.933Z,1.82
2019-01-29T07:23:29.957Z,1.79
2019-01-29T07:24:29.977Z,1.79
2019-01-29T07:25:29.996Z,1.79
2019-01-29T07:26:30.017Z,1.74
2019-01-29T07:27:30.039Z,1.75
2019-01-29T07:28:30.059Z,1.82
2019-01-29T07:29:30.081Z,1.83
2019-01-29T07:30:30.101Z,1.75
2019-01-29T07:31:30.121Z,1.75
2019-01-29T07:32:30.144Z,1.78
2019-01-29T07:33:30.163Z,1.87
2019-01-29T07:34:30.185Z,1.83
2019-01-29T07:35:30.208Z,1.84
2019-01-29T07:36:30.225Z,1.83
2019-01-29T07:37:30.247Z,1.82
2019-01-29T07:38:30.270Z,1.84
2019-01-29T07:39:30.291Z,1.79
2019-01-29T07:40:30.311Z,1.82
2019-01-29T07:41:30.330Z,1.83
2019-01-29T07:42:30.353Z,1.84
2019-01-29T07:43:30.373Z,1.82
2019-01-29T07:44:30.396Z,1.83
2019-01-29T07:45:30.420Z,1.84
2019-01-29T07:46:30.493Z,1.90
2019-01-29T07:47:30.459Z,2.01
2019-01-29T07:48:30.476Z,1.98
2019-01-29T07:49:30.500Z,1.94
2019-01-29T07:50:30.519Z,1.92
2019-01-29T07:51:30.542Z,2.02
2019-01-29T07:52:30.560Z,2.02
2019-01-29T07:53:30.583Z,2.01
2019-01-29T07:54:33.433Z,2.08
2019-01-29T07:55:30.624Z,2.15
2019-01-29T07:56:30.652Z,2.12
2019-01-29T07:57:30.666Z,2.16
2019-01-29T07:58:30.686Z,2.12
2019-01-29T07:59:33.043Z,2.12
2019-01-29T08:00:30.729Z,2.15
2019-01-29T08:01:30.751Z,2.15
2019-01-29T08:02:30.773Z,2.16
2019-01-29T08:03:30.794Z,2.11
2019-01-29T08:04:30.813Z,2.08
2019-01-29T08:05:30.837Z,2.04
2019-01-29T08:06:30.856Z,2.05
2019-01-29T08:07:30.879Z,2.08
2019-01-29T08:08:30.900Z,2.15
2019-01-29T08:09:30.926Z,2.11
2019-01-29T08:10:30.940Z,2.16
2019-01-29T08:11:30.964Z,2.20
2019-01-29T08:12:30.984Z,2.12
2019-01-29T08:13:31.006Z,2.22
2019-01-29T08:14:31.028Z,2.18
2019-01-29T08:15:31.046Z,2.23
2019-01-29T08:16:31.067Z,2.26
2019-01-29T08:17:31.142Z,2.20
2019-01-29T08:18:31.268Z,2.36
2019-01-29T08:19:31.131Z,2.29
2019-01-29T08:20:31.152Z,2.34
2019-01-29T08:21:31.175Z,2.29
2019-01-29T08:22:31.198Z,2.31
2019-01-29T08:23:31.218Z,2.33
2019-01-29T08:24:31.236Z,2.31
2019-01-29T08:25:31.259Z,2.45
2019-01-29T08:26:31.280Z,2.47
2019-01-29T08:27:31.301Z,2.44
2019-01-29T08:28:31.323Z,2.38
2019-01-29T08:29:31.343Z,2.33
2019-01-29T08:30:31.365Z,2.30
2019-01-29T08:31:31.386Z,2.22
2019-01-29T08:32:31.409Z,2.30
2019-01-29T08:33:31.430Z,2.29
2019-01-29T08:34:31.453Z,2.29
2019-01-29T08:35:31.474Z,2.33
2019-01-29T08:36:31.501Z,2.38
2019-01-29T08:37:31.516Z,2.33
2019-01-29T08:38:31.535Z,2.36
2019-01-29T08:39:31.560Z,2.34
2019-01-29T08:40:31.579Z,2.48
2019-01-29T08:41:31.601Z,2.41
2019-01-29T08:42:31.622Z,2.49
2019-01-29T08:43:31.644Z,2.48
2019-01-29T08:44:31.664Z,2.41
2019-01-29T08:45:31.684Z,2.44
2019-01-29T08:46:31.706Z,2.33
2019-01-29T08:47:31.727Z,2.33
2019-01-29T08:48:31.750Z,2.44
2019-01-29T08:49:31.781Z,2.44
2019-01-29T08:50:31.791Z,2.48
2019-01-29T08:51:31.814Z,2.40
2019-01-29T08:52:31.835Z,2.47
2019-01-29T08:53:31.858Z,2.54
2019-01-29T08:54:31.880Z,2.55
2019-01-29T08:55:31.900Z,2.41
2019-01-29T08:56:31.919Z,2.38
2019-01-29T08:57:31.940Z,2.41
2019-01-29T08:58:31.962Z,2.45
2019-01-29T08:59:31.983Z,2.44
2019-01-29T09:00:32.006Z,2.58
2019-01-29T09:01:32.026Z,2.52
2019-01-29T09:02:32.051Z,2.55
2019-01-29T09:03:32.070Z,2.59
2019-01-29T09:04:32.092Z,2.58
2019-01-29T09:05:32.113Z,2.62
2019-01-29T09:06:32.134Z,2.58
2019-01-29T09:07:32.155Z,2.62
2019-01-29T09:08:32.175Z,2.65
2019-01-29T09:09:32.197Z,2.67
2019-01-29T09:10:32.219Z,2.70
2019-01-29T09:11:32.297Z,2.69
2019-01-29T09:12:32.261Z,2.63
2019-01-29T09:13:32.284Z,2.67
2019-01-29T09:14:32.305Z,2.63
2019-01-29T09:15:32.330Z,2.62
2019-01-29T09:16:32.349Z,2.67
2019-01-29T09:17:32.369Z,2.76
2019-01-29T09:18:32.394Z,2.70
2019-01-29T09:19:32.414Z,2.69
2019-01-29T09:20:32.433Z,2.76
2019-01-29T09:21:32.455Z,2.67
2019-01-29T09:22:32.479Z,2.85
2019-01-29T09:23:32.501Z,2.84
2019-01-29T09:24:32.520Z,2.88
2019-01-29T09:25:32.544Z,2.73
2019-01-29T09:26:32.565Z,2.83
2019-01-29T09:27:32.587Z,2.91
2019-01-29T09:28:32.607Z,2.88
2019-01-29T09:29:32.629Z,2.83
2019-01-29T09:30:32.650Z,2.91
2019-01-29T09:31:32.672Z,2.93
2019-01-29T09:32:32.698Z,3.08
2019-01-29T09:33:32.715Z,3.03
2019-01-29T09:34:32.742Z,3.02
2019-01-29T09:35:32.761Z,2.87
2019-01-29T09:36:33.965Z,2.90
2019-01-29T09:37:32.804Z,2.81
2019-01-29T09:38:32.825Z,2.80
2019-01-29T09:39:32.847Z,2.85
2019-01-29T09:40:32.866Z,2.87
2019-01-29T09:41:32.891Z,2.88
2019-01-29T09:42:32.976Z,2.93
2019-01-29T09:43:32.936Z,3.08
2019-01-29T09:44:32.955Z,3.08
2019-01-29T09:45:32.978Z,3.19
2019-01-29T09:46:32.999Z,3.26
2019-01-29T09:47:33.020Z,3.30
2019-01-29T09:48:33.040Z,3.49
2019-01-29T09:49:33.062Z,3.49
2019-01-29T09:50:33.087Z,3.43
2019-01-29T09:51:33.108Z,3.30
2019-01-29T09:52:33.132Z,3.45
2019-01-29T09:53:33.152Z,3.72
2019-01-29T09:54:33.171Z,3.96
2019-01-29T09:55:33.194Z,3.79
2019-01-29T09:56:33.215Z,3.86
2019-01-29T09:57:33.240Z,3.94
2019-01-29T09:58:33.262Z,3.94
2019-01-29T09:59:33.285Z,3.93
2019-01-29T10:00:33.305Z,3.64
2019-01-29T10:01:33.330Z,3.64
2019-01-29T10:02:33.353Z,3.81
2019-01-29T10:03:33.380Z,3.99
2019-01-29T10:04:33.396Z,4.03
2019-01-29T10:05:33.418Z,4.15
2019-01-29T10:06:33.444Z,4.11
2019-01-29T10:07:33.461Z,4.07
2019-01-29T10:08:33.484Z,4.00
2019-01-29T10:09:33.506Z,4.22
2019-01-29T10:10:33.531Z,4.26
2019-01-29T10:11:33.554Z,4.12
2019-01-29T10:12:33.573Z,4.08
2019-01-29T10:13:33.596Z,3.90
2019-01-29T10:14:33.622Z,3.92
2019-01-29T10:15:33.645Z,3.75
2019-01-29T10:16:33.665Z,3.69
2019-01-29T10:17:33.688Z,3.72
2019-01-29T10:18:33.712Z,3.69
2019-01-29T10:19:33.734Z,3.85
2019-01-29T10:20:33.756Z,3.97
2019-01-29T10:21:33.778Z,4.12
2019-01-29T10:22:33.807Z,4.02
2019-01-29T10:23:33.827Z,3.94
2019-01-29T10:24:33.846Z,4.12
2019-01-29T10:25:37.746Z,4.07
2019-01-29T10:26:33.935Z,4.15
2019-01-29T10:27:33.918Z,4.20
2019-01-29T10:28:33.941Z,4.24
2019-01-29T10:29:33.963Z,4.24
2019-01-29T10:30:33.989Z,4.22
2019-01-29T10:31:34.008Z,4.20
2019-01-29T10:32:34.030Z,4.22
2019-01-29T10:33:34.056Z,4.17
2019-01-29T10:34:34.078Z,4.17
2019-01-29T10:35:34.099Z,4.18
2019-01-29T10:36:34.122Z,4.08
2019-01-29T10:37:34.148Z,4.04
2019-01-29T10:38:34.169Z,4.08
2019-01-29T10:39:34.194Z,4.15
2019-01-29T10:40:34.215Z,4.26
2019-01-29T10:41:34.237Z,4.18
2019-01-29T10:42:34.263Z,4.36
2019-01-29T10:43:34.284Z,4.53
2019-01-29T10:44:34.306Z,4.76
2019-01-29T10:45:34.334Z,5.02
2019-01-29T10:46:34.370Z,5.16
2019-01-29T10:47:34.378Z,5.15
2019-01-29T10:48:34.401Z,4.97
2019-01-29T10:49:34.424Z,4.83
2019-01-29T10:50:34.447Z,5.20
2019-01-29T10:51:34.469Z,5.21
2019-01-29T10:52:34.498Z,5.31
2019-01-29T10:53:34.517Z,5.00
2019-01-29T10:54:34.542Z,4.69
2019-01-29T10:55:34.563Z,4.60
2019-01-29T10:56:34.587Z,4.74
2019-01-29T10:57:34.611Z,5.46
2019-01-29T10:58:34.636Z,6.28
2019-01-29T10:59:34.662Z,5.88
2019-01-29T11:00:34.684Z,5.45
2019-01-29T11:01:34.706Z,5.09
2019-01-29T11:02:34.731Z,4.97
2019-01-29T11:03:34.832Z,4.90
2019-01-29T11:04:34.776Z,4.98
2019-01-29T11:05:34.802Z,4.90
2019-01-29T11:06:34.826Z,4.64
2019-01-29T11:07:34.852Z,4.57
2019-01-29T11:08:34.876Z,4.48
2019-01-29T11:09:34.897Z,5.24
2019-01-29T11:10:34.924Z,5.12
2019-01-29T11:11:34.948Z,4.95
2019-01-29T11:12:34.973Z,4.75
2019-01-29T11:13:34.995Z,4.57
2019-01-29T11:14:35.017Z,4.47
2019-01-29T11:15:35.041Z,4.56
2019-01-29T11:16:35.064Z,4.46
2019-01-29T11:17:35.090Z,4.33
2019-01-29T11:18:35.112Z,4.38
2019-01-29T11:19:35.136Z,4.24
2019-01-29T11:20:35.159Z,4.24
2019-01-29T11:21:35.183Z,4.22
2019-01-29T11:22:35.206Z,4.28
2019-01-29T11:23:35.232Z,4.26
2019-01-29T11:24:35.252Z,4.26
2019-01-29T11:25:35.276Z,4.24
2019-01-29T11:26:35.300Z,4.14
2019-01-29T11:27:35.325Z,4.17
2019-01-29T11:28:35.347Z,4.24
2019-01-29T11:29:35.369Z,4.26
2019-01-29T11:30:35.393Z,4.30
2019-01-29T11:31:35.418Z,4.39
2019-01-29T11:32:35.440Z,4.87
2019-01-29T11:33:35.461Z,4.85
2019-01-29T11:34:35.486Z,4.85
2019-01-29T11:35:35.510Z,5.34
2019-01-29T11:36:35.532Z,5.55
2019-01-29T11:37:35.555Z,5.42
2019-01-29T11:38:35.581Z,5.78
2019-01-29T11:39:35.603Z,5.63
2019-01-29T11:40:35.623Z,5.88
2019-01-29T11:41:35.646Z,5.67
2019-01-29T11:42:35.670Z,5.15
2019-01-29T11:43:35.696Z,5.00
2019-01-29T11:44:35.720Z,5.02
2019-01-29T11:45:35.741Z,5.02
2019-01-29T11:46:35.767Z,4.92
2019-01-29T11:47:35.788Z,4.90
2019-01-29T11:48:35.810Z,5.12
2019-01-29T11:49:35.837Z,5.54
2019-01-29T11:50:35.861Z,6.25
2019-01-29T11:51:35.884Z,6.83
2019-01-29T11:52:35.915Z,5.95
2019-01-29T11:53:35.929Z,5.55
2019-01-29T11:54:35.954Z,5.54
2019-01-29T11:55:35.980Z,5.63
2019-01-29T11:56:36.006Z,5.62
2019-01-29T11:57:36.025Z,5.51
2019-01-29T11:58:36.049Z,5.52
2019-01-29T11:59:36.076Z,6.17
2019-01-29T12:00:36.100Z,5.85
2019-01-29T12:01:36.122Z,5.81
2019-01-29T12:02:36.149Z,5.73
2019-01-29T12:03:36.173Z,7.08
2019-01-29T12:04:36.197Z,7.92
2019-01-29T12:05:36.221Z,7.88
2019-01-29T12:06:36.246Z,7.26
2019-01-29T12:07:36.275Z,6.62
2019-01-29T12:08:36.294Z,6.20
2019-01-29T12:09:36.321Z,5.82
2019-01-29T12:10:36.346Z,5.77
2019-01-29T12:11:36.372Z,5.57
2019-01-29T12:12:36.397Z,5.36
2019-01-29T12:13:36.421Z,5.23
2019-01-29T12:14:36.447Z,5.18
2019-01-29T12:15:36.469Z,5.36
2019-01-29T12:16:36.497Z,5.62
2019-01-29T12:17:36.520Z,5.77
2019-01-29T12:18:36.548Z,5.88
2019-01-29T12:19:36.568Z,5.60
2019-01-29T12:20:36.594Z,6.39
2019-01-29T12:21:36.619Z,6.97
2019-01-29T12:22:36.648Z,6.65
2019-01-29T12:23:36.669Z,6.58
2019-01-29T12:24:36.692Z,6.58
2019-01-29T12:25:36.718Z,6.31
2019-01-29T12:26:36.741Z,6.57
2019-01-29T12:27:36.781Z,7.44
2019-01-29T12:28:36.793Z,7.03
2019-01-29T12:29:36.816Z,6.54
2019-01-29T12:30:36.843Z,6.49
2019-01-29T12:31:36.866Z,7.05
2019-01-29T12:32:36.891Z,7.04
2019-01-29T12:33:36.916Z,6.88
2019-01-29T12:34:36.947Z,6.68
2019-01-29T12:35:36.969Z,6.98
2019-01-29T12:36:36.994Z,6.95
2019-01-29T12:37:37.019Z,6.31
2019-01-29T12:38:37.046Z,6.07
2019-01-29T12:39:37.072Z,6.46
2019-01-29T12:40:37.246Z,6.49
2019-01-29T12:41:37.121Z,6.42
2019-01-29T12:42:37.145Z,6.26
2019-01-29T12:43:37.172Z,6.34
2019-01-29T12:44:37.195Z,6.25
2019-01-29T12:45:37.222Z,6.06
2019-01-29T12:46:37.247Z,5.91
2019-01-29T12:47:37.274Z,5.88
2019-01-29T12:48:37.296Z,5.91
2019-01-29T12:49:37.323Z,5.82
2019-01-29T12:50:37.347Z,5.75
2019-01-29T12:51:37.372Z,5.78
2019-01-29T12:52:37.396Z,5.77
2019-01-29T12:53:37.424Z,5.62
2019-01-29T12:54:37.451Z,5.85
2019-01-29T12:55:37.472Z,6.10
2019-01-29T12:56:37.498Z,6.14
2019-01-29T12:57:37.523Z,6.40
2019-01-29T12:58:37.549Z,6.33
2019-01-29T12:59:37.572Z,6.29
2019-01-29T13:00:37.595Z,6.10
2019-01-29T13:01:37.620Z,5.96
2019-01-29T13:02:37.644Z,5.99
2019-01-29T13:03:37.673Z,6.05
2019-01-29T13:04:37.695Z,6.02
2019-01-29T13:05:37.721Z,5.81
2019-01-29T13:06:37.744Z,5.73
2019-01-29T13:07:37.771Z,5.57
2019-01-29T13:08:37.791Z,5.55
2019-01-29T13:09:37.817Z,5.49
2019-01-29T13:10:37.852Z,5.49
2019-01-29T13:11:37.865Z,5.63
2019-01-29T13:12:37.888Z,5.87
2019-01-29T13:13:37.913Z,6.02
2019-01-29T13:14:37.941Z,5.81
2019-01-29T13:15:37.964Z,5.77
2019-01-29T13:16:37.985Z,5.77
2019-01-29T13:17:38.013Z,5.91
2019-01-29T13:18:38.034Z,5.88